sensor_id;sensor_type;location;lat;lon;timestamp;pressure;altitude;pressure_sealevel;temperature;humidity
55759;BME280;41678;52.126;20.664;2023-05-19T00:01:44;101464.34;;;10.88;76.87
55759;BME280;41678;52.126;20.664;2023-05-19T00:07:09;101460.00;;;10.95;76.68
55759;BME280;41678;52.126;20.664;2023-05-19T00:12:29;101460.84;;;10.89;76.44
55759;BME280;41678;52.126;20.664;2023-05-19T00:17:49;101460.81;;;10.83;76.55
55759;BME280;41678;52.126;20.664;2023-05-19T00:23:10;101455.53;;;10.83;76.44
55759;BME280;41678;52.126;20.664;2023-05-19T00:28:30;101459.03;;;10.84;76.16
55759;BME280;41678;52.126;20.664;2023-05-19T00:33:50;101454.66;;;10.83;76.10
55759;BME280;41678;52.126;20.664;2023-05-19T00:39:10;101461.66;;;10.77;76.14
55759;BME280;41678;52.126;20.664;2023-05-19T00:44:30;101450.25;;;10.77;76.34
55759;BME280;41678;52.126;20.664;2023-05-19T00:49:49;101444.06;;;10.75;76.30
55759;BME280;41678;52.126;20.664;2023-05-19T00:55:09;101439.69;;;10.72;76.24
55759;BME280;41678;52.126;20.664;2023-05-19T01:00:30;101443.16;;;10.70;76.35
55759;BME280;41678;52.126;20.664;2023-05-19T01:05:50;101436.13;;;10.66;76.24
55759;BME280;41678;52.126;20.664;2023-05-19T01:11:11;101442.28;;;10.68;76.46
55759;BME280;41678;52.126;20.664;2023-05-19T01:16:38;101439.66;;;10.69;76.43
55759;BME280;41678;52.126;20.664;2023-05-19T01:22:17;101438.75;;;10.67;76.51
55759;BME280;41678;52.126;20.664;2023-05-19T01:27:43;101432.59;;;10.63;76.44
55759;BME280;41678;52.126;20.664;2023-05-19T01:33:07;101436.13;;;10.66;76.87
55759;BME280;41678;52.126;20.664;2023-05-19T01:38:28;101437.00;;;10.68;76.71
55759;BME280;41678;52.126;20.664;2023-05-19T01:43:49;101420.28;;;10.58;77.03
55759;BME280;41678;52.126;20.664;2023-05-19T01:49:09;101424.66;;;10.56;76.63
55759;BME280;41678;52.126;20.664;2023-05-19T01:54:30;101416.72;;;10.51;76.75
55759;BME280;41678;52.126;20.664;2023-05-19T02:06:02;101416.72;;;10.51;76.95
55759;BME280;41678;52.126;20.664;2023-05-19T02:11:02;101419.31;;;10.46;76.87
55759;BME280;41678;52.126;20.664;2023-05-19T02:16:27;101419.28;;;10.45;76.66
55759;BME280;41678;52.126;20.664;2023-05-19T02:21:47;101417.50;;;10.41;77.00
55759;BME280;41678;52.126;20.664;2023-05-19T02:27:07;101423.66;;;10.43;77.02
55759;BME280;41678;52.126;20.664;2023-05-19T02:32:27;101420.16;;;10.44;76.99
55759;BME280;41678;52.126;20.664;2023-05-19T02:37:46;101412.25;;;10.44;76.90
55759;BME280;41678;52.126;20.664;2023-05-19T02:43:06;101420.09;;;10.38;77.12
55759;BME280;41678;52.126;20.664;2023-05-19T02:48:27;101420.09;;;10.38;76.95
55759;BME280;41678;52.126;20.664;2023-05-19T02:53:47;101421.91;;;10.42;76.99
55759;BME280;41678;52.126;20.664;2023-05-19T02:59:06;101416.56;;;10.35;77.01
55759;BME280;41678;52.126;20.664;2023-05-19T03:04:26;101421.84;;;10.35;76.81
55759;BME280;41678;52.126;20.664;2023-05-19T03:09:46;101421.84;;;10.35;77.38
55759;BME280;41678;52.126;20.664;2023-05-19T03:15:06;101423.63;;;10.40;77.09
55759;BME280;41678;52.126;20.664;2023-05-19T03:20:25;101421.03;;;10.43;77.19
55759;BME280;41678;52.126;20.664;2023-05-19T03:25:45;101421.91;;;10.42;77.28
55759;BME280;41678;52.126;20.664;2023-05-19T03:31:04;101419.19;;;10.37;77.69
55759;BME280;41678;52.126;20.664;2023-05-19T03:36:29;101423.63;;;10.40;77.24
55759;BME280;41678;52.126;20.664;2023-05-19T03:42:01;101425.41;;;10.44;77.42
55759;BME280;41678;52.126;20.664;2023-05-19T03:47:21;101422.84;;;10.48;77.97
55759;BME280;41678;52.126;20.664;2023-05-19T03:52:57;101421.06;;;10.47;78.28
55759;BME280;41678;52.126;20.664;2023-05-19T03:58:22;101419.28;;;10.45;78.55
55759;BME280;41678;52.126;20.664;2023-05-19T04:03:42;101422.00;;;10.54;78.81
55759;BME280;41678;52.126;20.664;2023-05-19T04:09:02;101424.63;;;10.51;78.80
55759;BME280;41678;52.126;20.664;2023-05-19T04:14:29;101423.75;;;10.52;79.59
55759;BME280;41678;52.126;20.664;2023-05-19T04:19:49;101426.31;;;10.44;79.31
55759;BME280;41678;52.126;20.664;2023-05-19T04:25:09;101431.63;;;10.51;79.20
55759;BME280;41678;52.126;20.664;2023-05-19T04:30:28;101432.59;;;10.63;80.36
55759;BME280;41678;52.126;20.664;2023-05-19T04:35:48;101423.75;;;10.52;80.02
55759;BME280;41678;52.126;20.664;2023-05-19T04:41:09;101427.28;;;10.60;80.64
55759;BME280;41678;52.126;20.664;2023-05-19T04:46:31;101429.00;;;10.49;80.08
55759;BME280;41678;52.126;20.664;2023-05-19T04:51:51;101436.06;;;10.55;80.34
55759;BME280;41678;52.126;20.664;2023-05-19T04:57:14;101427.28;;;10.60;80.71
55759;BME280;41678;52.126;20.664;2023-05-19T05:02:34;101424.66;;;10.60;81.22
55759;BME280;41678;52.126;20.664;2023-05-19T05:07:55;101426.47;;;10.65;81.85
55759;BME280;41678;52.126;20.664;2023-05-19T05:13:20;101437.88;;;10.67;81.70
55759;BME280;41678;52.126;20.664;2023-05-19T05:18:40;101423.81;;;10.61;82.26
55759;BME280;41678;52.126;20.664;2023-05-19T05:24:01;101428.13;;;10.53;81.80
55759;BME280;41678;52.126;20.664;2023-05-19T05:29:24;101419.38;;;10.60;83.05
55759;BME280;41678;52.126;20.664;2023-05-19T05:34:45;101427.34;;;10.63;82.71
55759;BME280;41678;52.126;20.664;2023-05-19T05:40:06;101418.56;;;10.68;82.80
55759;BME280;41678;52.126;20.664;2023-05-19T05:45:27;101416.03;;;10.80;83.92
55759;BME280;41678;52.126;20.664;2023-05-19T05:50:48;101418.59;;;10.74;83.38
55759;BME280;41678;52.126;20.664;2023-05-19T05:56:12;101416.81;;;10.67;83.10
55759;BME280;41678;52.126;20.664;2023-05-19T06:01:45;101418.66;;;10.80;84.49
55759;BME280;41678;52.126;20.664;2023-05-19T06:07:05;101418.59;;;10.74;84.07
55759;BME280;41678;52.126;20.664;2023-05-19T06:12:28;101414.22;;;10.77;83.51
55759;BME280;41678;52.126;20.664;2023-05-19T06:17:48;101419.56;;;10.87;84.57
55759;BME280;41678;52.126;20.664;2023-05-19T06:23:07;101421.31;;;10.85;84.14
55759;BME280;41678;52.126;20.664;2023-05-19T06:28:28;101423.94;;;10.89;84.99
55759;BME280;41678;52.126;20.664;2023-05-19T06:33:48;101422.25;;;10.95;85.55
55759;BME280;41678;52.126;20.664;2023-05-19T06:39:09;101420.50;;;10.97;85.36
55759;BME280;41678;52.126;20.664;2023-05-19T06:44:29;101432.81;;;11.01;85.41
55759;BME280;41678;52.126;20.664;2023-05-19T06:49:49;101429.28;;;10.96;84.87
55759;BME280;41678;52.126;20.664;2023-05-19T06:55:09;101424.84;;;10.90;84.36
55759;BME280;41678;52.126;20.664;2023-05-19T07:00:31;101424.84;;;10.93;84.33
55759;BME280;41678;52.126;20.664;2023-05-19T07:05:52;101422.22;;;10.90;84.43
55759;BME280;41678;52.126;20.664;2023-05-19T07:11:11;101425.78;;;11.03;85.15
55759;BME280;41678;52.126;20.664;2023-05-19T07:16:32;101421.41;;;11.07;84.87
55759;BME280;41678;52.126;20.664;2023-05-19T07:21:52;101421.44;;;11.11;85.76
55759;BME280;41678;52.126;20.664;2023-05-19T07:27:13;101430.22;;;11.12;85.27
55759;BME280;41678;52.126;20.664;2023-05-19T07:32:33;101431.09;;;11.12;85.60
55759;BME280;41678;52.126;20.664;2023-05-19T07:37:52;101431.94;;;11.05;85.27
55759;BME280;41678;52.126;20.664;2023-05-19T07:43:12;101421.44;;;11.13;85.72
55759;BME280;41678;52.126;20.664;2023-05-19T07:48:31;101416.19;;;11.20;86.14
55759;BME280;41678;52.126;20.664;2023-05-19T07:53:51;101426.75;;;11.22;85.73
55759;BME280;41678;52.126;20.664;2023-05-19T07:59:11;101426.75;;;11.25;85.62
55759;BME280;41678;52.126;20.664;2023-05-19T08:04:31;101431.13;;;11.22;85.76
55759;BME280;41678;52.126;20.664;2023-05-19T08:09:51;101428.53;;;11.25;85.33
55759;BME280;41678;52.126;20.664;2023-05-19T08:15:11;101423.25;;;11.31;85.61
55759;BME280;41678;52.126;20.664;2023-05-19T08:20:30;101420.63;;;11.31;85.57
55759;BME280;41678;52.126;20.664;2023-05-19T08:25:50;101422.41;;;11.35;85.63
55759;BME280;41678;52.126;20.664;2023-05-19T08:31:10;101424.19;;;11.44;85.64
55759;BME280;41678;52.126;20.664;2023-05-19T08:36:29;101424.19;;;11.42;85.78
55759;BME280;41678;52.126;20.664;2023-05-19T08:41:49;101424.19;;;11.42;86.00
55759;BME280;41678;52.126;20.664;2023-05-19T08:47:08;101425.94;;;11.40;85.86
55759;BME280;41678;52.126;20.664;2023-05-19T08:57:51;101436.50;;;11.43;86.25
55759;BME280;41678;52.126;20.664;2023-05-19T09:03:11;101438.25;;;11.41;86.07
55759;BME280;41678;52.126;20.664;2023-05-19T09:08:31;101427.72;;;11.38;85.65
55759;BME280;41678;52.126;20.664;2023-05-19T09:13:50;101430.31;;;11.43;85.99
55759;BME280;41678;52.126;20.664;2023-05-19T09:19:13;101428.56;;;11.32;85.32
55759;BME280;41678;52.126;20.664;2023-05-19T09:24:35;101422.44;;;11.38;85.70
55759;BME280;41678;52.126;20.664;2023-05-19T09:30:06;101427.69;;;11.40;85.48
55759;BME280;41678;52.126;20.664;2023-05-19T09:35:26;101430.38;;;11.46;85.46
55759;BME280;41678;52.126;20.664;2023-05-19T09:40:49;101426.84;;;11.48;85.43
55759;BME280;41678;52.126;20.664;2023-05-19T09:46:10;101425.13;;;11.54;85.89
55759;BME280;41678;52.126;20.664;2023-05-19T09:51:30;101426.88;;;11.67;86.13
55759;BME280;41678;52.126;20.664;2023-05-19T09:57:01;101426.03;;;11.68;86.12
55759;BME280;41678;52.126;20.664;2023-05-19T10:02:23;101422.50;;;11.68;85.50
55759;BME280;41678;52.126;20.664;2023-05-19T10:07:49;101417.22;;;11.79;86.59
55759;BME280;41678;52.126;20.664;2023-05-19T10:13:10;101419.84;;;11.71;85.70
55759;BME280;41678;52.126;20.664;2023-05-19T10:18:32;101405.78;;;11.80;86.07
55759;BME280;41678;52.126;20.664;2023-05-19T10:23:51;101402.28;;;11.81;86.28
55759;BME280;41678;52.126;20.664;2023-05-19T10:29:13;101400.53;;;11.92;86.28
55759;BME280;41678;52.126;20.664;2023-05-19T10:35:11;101396.13;;;11.94;86.27
55759;BME280;41678;52.126;20.664;2023-05-19T10:40:49;101396.16;;;12.00;86.72
55759;BME280;41678;52.126;20.664;2023-05-19T10:46:09;101394.41;;;12.06;86.72
55759;BME280;41678;52.126;20.664;2023-05-19T10:51:30;101399.69;;;12.12;86.25
55759;BME280;41678;52.126;20.664;2023-05-19T10:56:55;101399.69;;;12.24;86.51
55759;BME280;41678;52.126;20.664;2023-05-19T11:02:41;101401.47;;;12.16;86.03
55759;BME280;41678;52.126;20.664;2023-05-19T11:08:00;101403.22;;;12.23;86.04
55759;BME280;41678;52.126;20.664;2023-05-19T11:13:26;101401.44;;;12.30;86.22
55759;BME280;41678;52.126;20.664;2023-05-19T11:18:49;101397.03;;;12.27;86.30
55759;BME280;41678;52.126;20.664;2023-05-19T11:24:09;101404.09;;;12.30;86.07
55759;BME280;41678;52.126;20.664;2023-05-19T11:29:30;101397.03;;;12.35;85.77
55759;BME280;41678;52.126;20.664;2023-05-19T11:34:51;101396.16;;;12.50;85.89
55759;BME280;41678;52.126;20.664;2023-05-19T11:40:12;101391.75;;;12.49;85.86
55759;BME280;41678;52.126;20.664;2023-05-19T11:45:34;101404.03;;;12.61;85.93
55759;BME280;41678;52.126;20.664;2023-05-19T11:50:54;101402.31;;;12.57;86.02
55759;BME280;41678;52.126;20.664;2023-05-19T11:56:15;101410.19;;;12.58;85.86
55759;BME280;41678;52.126;20.664;2023-05-19T12:01:34;101404.91;;;12.74;86.25
55759;BME280;41678;52.126;20.664;2023-05-19T12:06:54;101406.66;;;12.75;86.25
55759;BME280;41678;52.126;20.664;2023-05-19T12:12:21;101406.69;;;12.67;85.96
55759;BME280;41678;52.126;20.664;2023-05-19T12:17:41;101407.56;;;12.74;85.88
55759;BME280;41678;52.126;20.664;2023-05-19T12:23:01;101399.63;;;12.74;86.16
55759;BME280;41678;52.126;20.664;2023-05-19T12:28:21;101398.69;;;12.80;85.95
55759;BME280;41678;52.126;20.664;2023-05-19T12:33:40;101396.09;;;12.72;85.57
55759;BME280;41678;52.126;20.664;2023-05-19T12:38:59;101403.09;;;12.88;85.71
55759;BME280;41678;52.126;20.664;2023-05-19T12:44:20;101392.53;;;12.81;85.61
55759;BME280;41678;52.126;20.664;2023-05-19T12:50:15;101400.44;;;12.93;85.74
55759;BME280;41678;52.126;20.664;2023-05-19T12:55:39;101401.31;;;12.87;85.58
55759;BME280;41678;52.126;20.664;2023-05-19T13:01:00;101399.56;;;12.93;86.28
55759;BME280;41678;52.126;20.664;2023-05-19T13:06:20;101401.28;;;12.95;85.65
55759;BME280;41678;52.126;20.664;2023-05-19T13:11:40;101399.56;;;12.96;85.64
55759;BME280;41678;52.126;20.664;2023-05-19T13:17:01;101396.03;;;12.98;85.62
55759;BME280;41678;52.126;20.664;2023-05-19T13:22:21;101393.38;;;12.95;85.46
55759;BME280;41678;52.126;20.664;2023-05-19T13:27:41;101396.06;;;12.91;85.70
55759;BME280;41678;52.126;20.664;2023-05-19T13:33:01;101392.47;;;12.98;85.44
55759;BME280;41678;52.126;20.664;2023-05-19T13:38:21;101395.16;;;12.92;85.50
55759;BME280;41678;52.126;20.664;2023-05-19T13:43:40;101396.91;;;13.00;85.44
55759;BME280;41678;52.126;20.664;2023-05-19T13:49:00;101384.56;;;12.93;85.27
55759;BME280;41678;52.126;20.664;2023-05-19T13:54:20;101388.94;;;12.99;85.44
55759;BME280;41678;52.126;20.664;2023-05-19T13:59:39;101388.94;;;13.02;85.30
55759;BME280;41678;52.126;20.664;2023-05-19T14:05:01;101395.97;;;13.08;85.50
55759;BME280;41678;52.126;20.664;2023-05-19T14:10:20;101388.03;;;13.03;85.44
55759;BME280;41678;52.126;20.664;2023-05-19T14:16:01;101389.81;;;13.06;85.52
55759;BME280;41678;52.126;20.664;2023-05-19T14:21:21;101394.25;;;13.05;85.28
55759;BME280;41678;52.126;20.664;2023-05-19T14:26:41;101386.25;;;13.11;85.52
55759;BME280;41678;52.126;20.664;2023-05-19T14:32:00;101406.50;;;13.22;85.49
55759;BME280;41678;52.126;20.664;2023-05-19T14:37:21;101401.22;;;13.15;85.33
55759;BME280;41678;52.126;20.664;2023-05-19T14:42:40;101390.69;;;13.08;85.05
55759;BME280;41678;52.126;20.664;2023-05-19T14:48:00;101394.19;;;13.14;85.06
55759;BME280;41678;52.126;20.664;2023-05-19T14:53:20;101389.81;;;13.12;85.47
55759;BME280;41678;52.126;20.664;2023-05-19T14:58:39;101388.03;;;13.03;85.18
55759;BME280;41678;52.126;20.664;2023-05-19T15:03:59;101400.34;;;13.13;85.40
55759;BME280;41678;52.126;20.664;2023-05-19T15:09:18;101408.28;;;13.13;85.27
55759;BME280;41678;52.126;20.664;2023-05-19T15:14:38;101404.78;;;13.11;85.23
55759;BME280;41678;52.126;20.664;2023-05-19T15:19:57;101408.31;;;13.07;84.87
55759;BME280;41678;52.126;20.664;2023-05-19T15:25:16;101410.94;;;13.13;85.15
55759;BME280;41678;52.126;20.664;2023-05-19T15:30:36;101409.19;;;13.09;85.18
55759;BME280;41678;52.126;20.664;2023-05-19T15:35:56;101405.63;;;13.18;85.37
55759;BME280;41678;52.126;20.664;2023-05-19T15:41:15;101402.94;;;13.24;85.42
55759;BME280;41678;52.126;20.664;2023-05-19T15:46:35;101403.88;;;13.15;85.37
55759;BME280;41678;52.126;20.664;2023-05-19T15:51:54;101403.03;;;13.10;85.02
55759;BME280;41678;52.126;20.664;2023-05-19T15:57:14;101391.53;;;13.10;84.72
55759;BME280;41678;52.126;20.664;2023-05-19T16:02:34;101386.28;;;13.07;84.82
55759;BME280;41678;52.126;20.664;2023-05-19T16:07:54;101382.75;;;13.09;84.92
55759;BME280;41678;52.126;20.664;2023-05-19T16:13:14;101370.41;;;13.08;84.82
55759;BME280;41678;52.126;20.664;2023-05-19T16:18:34;101381.88;;;13.10;84.98
55759;BME280;41678;52.126;20.664;2023-05-19T16:23:54;101373.94;;;13.06;84.87
55759;BME280;41678;52.126;20.664;2023-05-19T16:29:13;101379.25;;;13.07;84.77
55759;BME280;41678;52.126;20.664;2023-05-19T16:34:33;101381.88;;;13.07;84.64
55759;BME280;41678;52.126;20.664;2023-05-19T16:39:52;101382.75;;;13.03;84.99
55759;BME280;41678;52.126;20.664;2023-05-19T16:45:12;101381.91;;;12.98;84.76
55759;BME280;41678;52.126;20.664;2023-05-19T16:50:31;101366.94;;;13.01;84.19
55759;BME280;41678;52.126;20.664;2023-05-19T16:55:51;101386.31;;;13.00;84.45
55759;BME280;41678;52.126;20.664;2023-05-19T17:01:10;101374.88;;;12.95;84.37
55759;BME280;41678;52.126;20.664;2023-05-19T17:06:30;101376.66;;;12.95;84.47
55759;BME280;41678;52.126;20.664;2023-05-19T17:11:53;101382.81;;;12.92;84.37
55759;BME280;41678;52.126;20.664;2023-05-19T17:17:13;101381.94;;;12.92;84.45
55759;BME280;41678;52.126;20.664;2023-05-19T17:22:32;101378.38;;;12.94;84.25
55759;BME280;41678;52.126;20.664;2023-05-19T17:27:52;101383.72;;;12.93;84.24
55759;BME280;41678;52.126;20.664;2023-05-19T17:33:13;101388.09;;;12.92;84.41
55759;BME280;41678;52.126;20.664;2023-05-19T17:38:34;101385.47;;;12.91;83.92
55759;BME280;41678;52.126;20.664;2023-05-19T17:43:58;101386.34;;;12.96;84.19
55759;BME280;41678;52.126;20.664;2023-05-19T17:49:19;101388.09;;;12.94;84.12
55759;BME280;41678;52.126;20.664;2023-05-19T17:54:41;101390.75;;;12.91;84.21
55759;BME280;41678;52.126;20.664;2023-05-19T18:00:01;101386.38;;;12.89;83.80
55759;BME280;41678;52.126;20.664;2023-05-19T18:05:24;101392.50;;;12.88;84.03
55759;BME280;41678;52.126;20.664;2023-05-19T18:10:45;101389.00;;;12.89;83.62
55759;BME280;41678;52.126;20.664;2023-05-19T18:16:06;101387.22;;;12.88;83.76
55759;BME280;41678;52.126;20.664;2023-05-19T18:21:26;101383.72;;;12.86;83.89
55759;BME280;41678;52.126;20.664;2023-05-19T18:26:46;101392.53;;;12.87;83.88
55759;BME280;41678;52.126;20.664;2023-05-19T18:32:06;101396.03;;;12.87;83.84
55759;BME280;41678;52.126;20.664;2023-05-19T18:37:26;101404.88;;;12.85;83.83
55759;BME280;41678;52.126;20.664;2023-05-19T18:42:46;101410.16;;;12.83;83.37
55759;BME280;41678;52.126;20.664;2023-05-19T18:48:06;101402.22;;;12.83;83.90
55759;BME280;41678;52.126;20.664;2023-05-19T18:53:26;101405.75;;;12.81;83.95
55759;BME280;41678;52.126;20.664;2023-05-19T18:58:45;101408.41;;;12.82;83.71
55759;BME280;41678;52.126;20.664;2023-05-19T19:04:05;101417.22;;;12.78;83.51
55759;BME280;41678;52.126;20.664;2023-05-19T19:09:25;101422.50;;;12.78;83.51
55759;BME280;41678;52.126;20.664;2023-05-19T19:14:45;101422.50;;;12.78;83.38
55759;BME280;41678;52.126;20.664;2023-05-19T19:20:06;101430.44;;;12.75;84.07
55759;BME280;41678;52.126;20.664;2023-05-19T19:25:26;101425.16;;;12.72;83.08
55759;BME280;41678;52.126;20.664;2023-05-19T19:30:46;101417.22;;;12.69;83.46
55759;BME280;41678;52.126;20.664;2023-05-19T19:36:06;101433.97;;;12.72;83.43
55759;BME280;41678;52.126;20.664;2023-05-19T19:41:26;101421.66;;;12.71;83.31
55759;BME280;41678;52.126;20.664;2023-05-19T19:46:48;101430.47;;;12.70;83.29
55759;BME280;41678;52.126;20.664;2023-05-19T19:52:08;101432.19;;;12.70;83.31
55759;BME280;41678;52.126;20.664;2023-05-19T19:57:27;101436.63;;;12.68;83.32
55759;BME280;41678;52.126;20.664;2023-05-19T20:02:48;101433.09;;;12.69;83.26
55759;BME280;41678;52.126;20.664;2023-05-19T20:08:08;101431.34;;;12.68;83.15
55759;BME280;41678;52.126;20.664;2023-05-19T20:13:28;101426.94;;;12.67;83.21
55759;BME280;41678;52.126;20.664;2023-05-19T20:18:48;101427.81;;;12.66;83.22
55759;BME280;41678;52.126;20.664;2023-05-19T20:24:07;101428.72;;;12.65;83.21
55759;BME280;41678;52.126;20.664;2023-05-19T20:29:27;101434.88;;;12.64;83.03
55759;BME280;41678;52.126;20.664;2023-05-19T20:34:46;101433.13;;;12.63;83.05
55759;BME280;41678;52.126;20.664;2023-05-19T20:40:06;101440.16;;;12.64;82.76
55759;BME280;41678;52.126;20.664;2023-05-19T20:45:26;101438.41;;;12.63;82.88
55759;BME280;41678;52.126;20.664;2023-05-19T20:50:46;101439.25;;;12.63;82.97
55759;BME280;41678;52.126;20.664;2023-05-19T20:56:05;101434.88;;;12.57;82.63
55759;BME280;41678;52.126;20.664;2023-05-19T21:01:30;101438.41;;;12.59;82.68
55759;BME280;41678;52.126;20.664;2023-05-19T21:06:49;101445.44;;;12.60;82.84
55759;BME280;41678;52.126;20.664;2023-05-19T21:12:12;101447.19;;;12.58;82.72
55759;BME280;41678;52.126;20.664;2023-05-19T21:17:34;101442.81;;;12.59;83.07
55759;BME280;41678;52.126;20.664;2023-05-19T21:22:54;101438.41;;;12.59;83.01
55759;BME280;41678;52.126;20.664;2023-05-19T21:28:15;101445.44;;;12.57;82.71
55759;BME280;41678;52.126;20.664;2023-05-19T21:33:34;101443.69;;;12.59;82.51
55759;BME280;41678;52.126;20.664;2023-05-19T21:38:53;101440.16;;;12.57;82.67
55759;BME280;41678;52.126;20.664;2023-05-19T21:44:13;101446.31;;;12.58;82.74
55759;BME280;41678;52.126;20.664;2023-05-19T21:49:32;101445.44;;;12.57;82.58
55759;BME280;41678;52.126;20.664;2023-05-19T21:54:52;101445.44;;;12.57;82.81
55759;BME280;41678;52.126;20.664;2023-05-19T22:00:12;101436.63;;;12.55;83.12
55759;BME280;41678;52.126;20.664;2023-05-19T22:05:32;101438.41;;;12.63;82.80
55759;BME280;41678;52.126;20.664;2023-05-19T22:10:53;101434.88;;;12.56;82.63
55759;BME280;41678;52.126;20.664;2023-05-19T22:16:13;101434.88;;;12.64;82.46
55759;BME280;41678;52.126;20.664;2023-05-19T22:21:32;101439.28;;;12.61;82.53
55759;BME280;41678;52.126;20.664;2023-05-19T22:26:52;101437.50;;;12.68;82.83
55759;BME280;41678;52.126;20.664;2023-05-19T22:32:11;101444.56;;;12.61;82.78
55759;BME280;41678;52.126;20.664;2023-05-19T22:37:32;101438.38;;;12.56;82.79
55759;BME280;41678;52.126;20.664;2023-05-19T22:42:52;101440.16;;;12.56;83.06
55759;BME280;41678;52.126;20.664;2023-05-19T22:48:11;101437.53;;;12.56;83.04
55759;BME280;41678;52.126;20.664;2023-05-19T22:53:31;101437.50;;;12.54;82.97
55759;BME280;41678;52.126;20.664;2023-05-19T22:58:50;101431.34;;;12.55;82.99
55759;BME280;41678;52.126;20.664;2023-05-19T23:04:10;101435.75;;;12.56;83.16
55759;BME280;41678;52.126;20.664;2023-05-19T23:09:29;101435.78;;;12.55;83.52
55759;BME280;41678;52.126;20.664;2023-05-19T23:14:49;101435.75;;;12.53;82.96
55759;BME280;41678;52.126;20.664;2023-05-19T23:20:10;101440.16;;;12.54;83.17
55759;BME280;41678;52.126;20.664;2023-05-19T23:25:29;101429.59;;;12.57;83.19
55759;BME280;41678;52.126;20.664;2023-05-19T23:30:51;101428.72;;;12.55;82.94
55759;BME280;41678;52.126;20.664;2023-05-19T23:36:11;101430.50;;;12.55;82.83
55759;BME280;41678;52.126;20.664;2023-05-19T23:41:30;101427.84;;;12.55;82.83
55759;BME280;41678;52.126;20.664;2023-05-19T23:46:50;101434.00;;;12.57;82.99
55759;BME280;41678;52.126;20.664;2023-05-19T23:52:09;101426.06;;;12.55;82.81
55759;BME280;41678;52.126;20.664;2023-05-19T23:57:29;101421.66;;;12.54;82.78
